createdAt,value
2018-04-14T00:01:46.121Z,80.80
2018-04-14T00:04:13.596Z,81.10
2018-04-14T00:06:41.059Z,81.00
2018-04-14T00:09:08.544Z,80.90
2018-04-14T00:11:36.434Z,80.60
2018-04-14T00:14:04.043Z,80.60
2018-04-14T00:16:31.618Z,81.00
2018-04-14T00:18:59.076Z,81.10
2018-04-14T00:21:26.527Z,80.70
2018-04-14T00:23:54.001Z,80.70
2018-04-14T00:26:21.524Z,81.00
2018-04-14T00:28:49.062Z,81.10
2018-04-14T00:31:16.528Z,81.00
2018-04-14T00:33:43.990Z,80.80
2018-04-14T00:36:11.923Z,80.70
2018-04-14T00:38:39.448Z,80.60
2018-04-14T00:41:06.925Z,80.50
2018-04-14T00:43:34.386Z,80.60
2018-04-14T00:46:01.837Z,80.60
2018-04-14T00:48:29.312Z,80.60
2018-04-14T00:50:56.825Z,80.20
2018-04-14T00:53:36.546Z,80.40
2018-04-14T00:56:03.995Z,80.40
2018-04-14T00:58:31.480Z,80.70
2018-04-14T01:00:59.389Z,80.50
2018-04-14T01:03:26.853Z,80.50
2018-04-14T01:05:54.342Z,80.70
2018-04-14T01:08:22.400Z,80.60
2018-04-14T01:10:49.866Z,80.60
2018-04-14T01:13:17.363Z,80.50
2018-04-14T01:15:44.916Z,80.50
2018-04-14T01:18:12.394Z,80.60
2018-04-14T01:20:39.840Z,80.60
2018-04-14T01:23:07.319Z,80.70
2018-04-14T01:25:34.779Z,80.30
2018-04-14T01:28:02.658Z,80.60
2018-04-14T01:30:30.179Z,80.60
2018-04-14T01:32:57.633Z,80.50
2018-04-14T01:35:25.100Z,80.50
2018-04-14T01:37:52.625Z,80.80
2018-04-14T01:40:20.484Z,81.10
2018-04-14T01:42:48.348Z,80.80
2018-04-14T01:45:15.818Z,80.80
2018-04-14T01:47:43.771Z,80.60
2018-04-14T01:50:11.348Z,80.60
2018-04-14T01:52:38.847Z,80.30
2018-04-14T01:55:06.825Z,80.50
2018-04-14T01:57:34.283Z,80.10
2018-04-14T02:00:01.812Z,80.00
2018-04-14T02:02:29.316Z,80.00
2018-04-14T02:04:56.770Z,80.30
2018-04-14T02:07:24.297Z,80.60
2018-04-14T02:09:51.746Z,81.00
2018-04-14T02:12:19.202Z,81.20
2018-04-14T02:14:46.683Z,81.40
2018-04-14T02:17:14.234Z,81.50
2018-04-14T02:19:41.691Z,81.90
2018-04-14T02:22:09.170Z,81.90
2018-04-14T02:24:36.652Z,82.10
2018-04-14T02:27:04.593Z,82.40
2018-04-14T02:29:32.063Z,82.50
2018-04-14T02:31:59.522Z,82.50
2018-04-14T02:34:27.074Z,82.60
2018-04-14T02:36:54.544Z,82.60
2018-04-14T02:39:22.057Z,82.70
2018-04-14T02:41:49.522Z,82.80
2018-04-14T02:44:16.983Z,82.80
2018-04-14T02:46:44.455Z,82.80
2018-04-14T02:49:11.950Z,82.90
2018-04-14T02:51:39.420Z,83.00
2018-04-14T02:54:06.872Z,83.00
2018-04-14T02:56:34.356Z,83.10
2018-04-14T02:59:01.896Z,83.00
2018-04-14T03:01:29.472Z,83.10
2018-04-14T03:03:57.024Z,83.20
2018-04-14T03:06:24.589Z,83.20
2018-04-14T03:08:52.055Z,83.30
2018-04-14T03:11:19.510Z,83.30
2018-04-14T03:13:46.962Z,83.50
2018-04-14T03:16:14.469Z,83.50
2018-04-14T03:18:42.424Z,83.50
2018-04-14T03:21:09.901Z,83.50
2018-04-14T03:23:37.451Z,83.60
2018-04-14T03:26:04.921Z,83.50
2018-04-14T03:28:32.474Z,83.70
2018-04-14T03:30:59.937Z,83.60
2018-04-14T03:33:27.442Z,83.50
2018-04-14T03:35:54.946Z,83.60
2018-04-14T03:38:22.449Z,83.50
2018-04-14T03:40:50.396Z,83.50
2018-04-14T03:43:18.315Z,83.50
2018-04-14T03:45:45.820Z,83.60
2018-04-14T03:48:13.367Z,83.50
2018-04-14T03:50:40.899Z,83.40
2018-04-14T03:53:09.138Z,83.30
2018-04-14T03:55:36.739Z,83.30
2018-04-14T03:58:04.631Z,83.20
2018-04-14T04:00:32.129Z,83.20
2018-04-14T04:02:59.667Z,83.10
2018-04-14T04:05:27.288Z,83.30
2018-04-14T04:07:55.193Z,83.10
2018-04-14T04:10:22.704Z,83.10
2018-04-14T04:12:50.205Z,83.10
2018-04-14T04:15:17.782Z,83.20
2018-04-14T04:17:45.319Z,83.10
2018-04-14T04:33:41.168Z,83.00
2018-04-14T04:36:08.659Z,82.80
2018-04-14T04:38:36.238Z,82.90
2018-04-14T04:41:04.353Z,83.10
2018-04-14T04:43:31.888Z,83.10
2018-04-14T04:45:59.982Z,82.90
2018-04-14T04:48:27.520Z,82.90
2018-04-14T04:50:55.769Z,82.50
2018-04-14T04:53:23.264Z,82.50
2018-04-14T04:55:51.434Z,82.00
2018-04-14T04:58:19.345Z,82.40
2018-04-14T05:00:46.883Z,82.50
2018-04-14T05:03:14.381Z,82.60
2018-04-14T05:05:41.880Z,82.50
2018-04-14T05:08:09.485Z,82.30
2018-04-14T05:10:37.043Z,82.20
2018-04-14T05:13:04.512Z,82.20
2018-04-14T05:15:31.998Z,82.40
2018-04-14T05:17:59.523Z,82.50
2018-04-14T05:20:27.391Z,82.70
2018-04-14T05:22:54.956Z,82.70
2018-04-14T05:25:22.931Z,82.80
2018-04-14T05:27:50.838Z,82.80
2018-04-14T05:30:18.333Z,82.80
2018-04-14T05:32:45.952Z,82.70
2018-04-14T05:35:13.528Z,82.60
2018-04-14T05:37:40.996Z,82.30
2018-04-14T05:40:08.494Z,82.20
2018-04-14T05:42:36.006Z,82.40
2018-04-14T05:45:03.534Z,82.20
2018-04-14T05:47:31.478Z,81.90
2018-04-14T05:49:58.949Z,81.90
2018-04-14T05:52:26.527Z,81.60
2018-04-14T05:54:54.005Z,81.50
2018-04-14T05:57:21.931Z,81.10
2018-04-14T05:59:49.466Z,81.10
2018-04-14T06:02:16.957Z,80.90
2018-04-14T06:04:44.483Z,80.50
2018-04-14T06:07:12.363Z,80.40
2018-04-14T06:09:39.892Z,80.40
2018-04-14T06:12:07.494Z,80.60
2018-04-14T06:14:35.020Z,80.60
2018-04-14T06:17:03.000Z,80.30
2018-04-14T06:19:30.484Z,80.30
2018-04-14T06:21:57.974Z,80.30
2018-04-14T06:24:25.527Z,80.70
2018-04-14T06:26:53.088Z,80.80
2018-04-14T06:29:20.589Z,80.90
2018-04-14T06:31:48.112Z,81.10
2018-04-14T06:34:15.648Z,80.80
2018-04-14T06:36:43.595Z,81.30
2018-04-14T06:39:11.078Z,81.20
2018-04-14T06:41:38.977Z,81.00
2018-04-14T06:44:06.495Z,81.00
2018-04-14T06:46:34.083Z,81.10
2018-04-14T06:49:02.070Z,81.40
2018-04-14T06:51:29.569Z,81.40
2018-04-14T06:53:57.088Z,81.50
2018-04-14T06:56:25.008Z,81.20
2018-04-14T06:58:52.525Z,81.20
2018-04-14T07:01:20.629Z,81.00
2018-04-14T07:03:48.142Z,81.00
2018-04-14T07:06:16.628Z,81.00
2018-04-14T07:08:44.132Z,81.00
2018-04-14T07:11:11.673Z,81.10
2018-04-14T07:13:39.576Z,80.70
2018-04-14T07:16:07.059Z,80.70
2018-04-14T07:18:34.559Z,81.00
2018-04-14T07:21:02.061Z,81.20
2018-04-14T07:23:29.545Z,80.90
2018-04-14T07:25:57.098Z,81.20
2018-04-14T07:41:30.800Z,79.80
2018-04-14T07:43:58.312Z,79.30
2018-04-14T07:46:26.295Z,79.10
2018-04-14T07:48:53.913Z,79.10
2018-04-14T07:51:21.511Z,79.40
2018-04-14T07:53:49.503Z,79.70
2018-04-14T07:56:17.099Z,79.70
2018-04-14T07:58:44.619Z,79.60
2018-04-14T08:01:12.599Z,79.70
2018-04-14T08:03:40.115Z,79.70
2018-04-14T08:06:07.698Z,79.50
2018-04-14T08:08:35.199Z,79.50
2018-04-14T08:11:02.694Z,79.70
2018-04-14T08:13:30.210Z,79.20
2018-04-14T08:15:58.101Z,79.10
2018-04-14T08:18:25.683Z,79.10
2018-04-14T08:20:53.203Z,78.20
2018-04-14T08:23:21.683Z,77.70
2018-04-14T08:25:50.194Z,76.70
2018-04-14T08:28:17.713Z,76.70
2018-04-14T08:30:45.342Z,76.50
2018-04-14T08:33:12.844Z,76.80
2018-04-14T08:35:40.453Z,76.80
2018-04-14T08:38:07.950Z,76.80
2018-04-14T08:40:35.553Z,77.50
2018-04-14T08:43:03.508Z,78.10
2018-04-14T08:45:31.173Z,78.10
2018-04-14T08:47:58.711Z,79.70
2018-04-14T08:50:26.514Z,78.60
2018-04-14T08:52:54.024Z,77.80
2018-04-14T08:55:21.638Z,77.00
2018-04-14T08:57:49.159Z,76.90
2018-04-14T09:00:16.699Z,76.10
2018-04-14T09:02:44.189Z,76.20
2018-04-14T09:05:11.771Z,76.40
2018-04-14T09:07:40.041Z,76.50
2018-04-14T09:10:07.585Z,75.50
2018-04-14T09:12:35.121Z,74.70
2018-04-14T09:15:03.007Z,73.20
2018-04-14T09:17:30.565Z,73.20
2018-04-14T09:19:58.587Z,71.70
2018-04-14T09:22:26.127Z,71.70
2018-04-14T09:24:53.630Z,70.60
2018-04-14T09:27:21.152Z,70.60
2018-04-14T09:29:48.692Z,69.10
2018-04-14T09:32:16.639Z,67.40
2018-04-14T09:34:44.136Z,67.40
2018-04-14T09:37:11.636Z,66.50
2018-04-14T09:39:39.124Z,66.10
2018-04-14T09:42:06.634Z,64.80
2018-04-14T09:44:34.388Z,62.50
2018-04-14T09:47:02.261Z,60.70
2018-04-14T09:49:30.146Z,59.00
2018-04-14T09:51:57.674Z,59.00
2018-04-14T09:54:25.158Z,58.70
2018-04-14T09:56:52.773Z,57.00
2018-04-14T09:59:20.268Z,55.80
2018-04-14T10:01:51.242Z,55.10
2018-04-14T10:04:18.718Z,54.60
2018-04-14T10:06:46.632Z,53.20
2018-04-14T10:09:14.218Z,52.50
2018-04-14T10:11:42.087Z,51.20
2018-04-14T10:14:10.076Z,51.00
2018-04-14T10:16:37.577Z,51.00
2018-04-14T10:19:05.096Z,50.30
2018-04-14T10:21:33.033Z,51.30
2018-04-14T10:24:00.712Z,51.30
2018-04-14T10:26:28.604Z,49.00
2018-04-14T10:28:56.592Z,49.90
2018-04-14T10:31:24.076Z,49.90
2018-04-14T10:33:51.693Z,50.00
2018-04-14T10:36:19.284Z,50.70
2018-04-14T10:38:46.783Z,51.80
2018-04-14T10:41:14.273Z,51.40
2018-04-14T10:43:41.770Z,51.10
2018-04-14T10:46:09.731Z,50.50
2018-04-14T10:48:37.220Z,50.50
2018-04-14T10:51:04.708Z,51.10
2018-04-14T10:53:32.209Z,50.80
2018-04-14T10:55:59.754Z,51.50
2018-04-14T10:58:27.350Z,51.70
2018-04-14T11:00:55.266Z,52.80
2018-04-14T11:03:22.774Z,52.90
2018-04-14T11:05:50.852Z,52.00
2018-04-14T11:08:18.371Z,52.00
2018-04-14T11:10:45.928Z,51.70
2018-04-14T11:13:13.429Z,52.20
2018-04-14T11:15:41.005Z,52.80
2018-04-14T11:18:08.548Z,53.20
2018-04-14T11:20:36.565Z,53.70
2018-04-14T11:23:04.105Z,53.70
2018-04-14T11:25:32.100Z,53.70
2018-04-14T11:27:59.992Z,53.30
2018-04-14T11:30:27.543Z,53.30
2018-04-14T11:32:55.414Z,54.10
2018-04-14T11:35:23.852Z,54.10
2018-04-14T11:37:51.346Z,54.20
2018-04-14T11:40:19.285Z,54.70
2018-04-14T11:42:46.810Z,54.70
2018-04-14T11:45:14.956Z,54.30
2018-04-14T11:47:42.898Z,54.00
2018-04-14T11:50:10.367Z,54.00
2018-04-14T11:52:37.899Z,54.00
2018-04-14T11:55:05.419Z,54.20
2018-04-14T11:57:33.285Z,53.90
2018-04-14T12:00:01.277Z,53.80
2018-04-14T12:02:29.163Z,53.30
2018-04-14T12:04:56.664Z,53.30
2018-04-14T12:07:24.169Z,53.30
2018-04-14T12:09:52.087Z,52.70
2018-04-14T12:12:19.633Z,52.70
2018-04-14T12:14:47.114Z,53.20
2018-04-14T12:17:14.637Z,53.50
2018-04-14T12:19:42.510Z,53.20
2018-04-14T12:22:09.999Z,53.20
2018-04-14T12:24:37.636Z,53.20
2018-04-14T12:27:05.534Z,52.70
2018-04-14T12:29:33.022Z,52.70
2018-04-14T12:32:00.640Z,53.80
2018-04-14T12:34:28.177Z,51.70
2018-04-14T12:36:56.289Z,52.10
2018-04-14T12:39:24.252Z,51.70
2018-04-14T12:41:51.966Z,50.90
2018-04-14T12:44:19.803Z,51.50
2018-04-14T12:46:47.483Z,50.90
2018-04-14T12:49:15.690Z,50.30
2018-04-14T12:51:43.387Z,49.90
2018-04-14T12:54:11.204Z,49.90
2018-04-14T12:56:38.730Z,50.20
2018-04-14T12:59:06.298Z,50.60
2018-04-14T13:01:34.286Z,49.80
2018-04-14T13:04:02.143Z,49.90
2018-04-14T13:06:30.040Z,50.30
2018-04-14T13:08:57.609Z,50.30
2018-04-14T13:11:25.071Z,50.70
2018-04-14T13:13:53.033Z,50.10
2018-04-14T13:16:20.621Z,50.40
2018-04-14T13:18:48.571Z,50.50
2018-04-14T13:21:16.449Z,49.60
2018-04-14T13:23:44.127Z,49.40
2018-04-14T13:26:11.868Z,50.60
2018-04-14T13:28:46.654Z,51.20
2018-04-14T13:31:14.369Z,50.90
2018-04-14T13:33:41.953Z,50.70
2018-04-14T13:36:10.185Z,50.90
2018-04-14T13:38:37.760Z,51.00
2018-04-14T13:41:05.739Z,51.30
2018-04-14T13:43:34.330Z,51.80
2018-04-14T13:46:02.331Z,51.80
2018-04-14T13:48:30.021Z,51.10
2018-04-14T13:50:57.775Z,51.40
2018-04-14T13:53:25.428Z,51.00
2018-04-14T13:55:53.006Z,50.40
2018-04-14T13:58:20.849Z,51.30
2018-04-14T14:00:48.646Z,50.80
2018-04-14T14:06:15.330Z,49.60
2018-04-14T14:08:42.905Z,49.30
2018-04-14T14:11:10.560Z,49.10
2018-04-14T14:13:38.486Z,48.00
2018-04-14T14:16:06.087Z,47.10
2018-04-14T14:18:34.636Z,46.80
2018-04-14T14:21:03.346Z,47.20
2018-04-14T14:23:31.544Z,47.10
2018-04-14T14:25:59.891Z,46.40
2018-04-14T14:28:27.738Z,46.00
2018-04-14T14:30:55.920Z,46.40
2018-04-14T14:33:24.930Z,46.50
2018-04-14T14:35:53.327Z,46.50
2018-04-14T14:38:21.200Z,46.50
2018-04-14T14:40:49.404Z,46.10
2018-04-14T14:43:17.798Z,46.20
2018-04-14T14:45:46.872Z,45.90
2018-04-14T14:48:17.237Z,45.40
2018-04-14T14:50:45.840Z,45.20
2018-04-14T14:53:13.613Z,45.20
2018-04-14T14:55:42.304Z,44.60
2018-04-14T14:58:10.229Z,45.00
2018-04-14T15:00:38.377Z,45.00
2018-04-14T15:03:06.065Z,45.00
2018-04-14T15:05:33.650Z,44.10
2018-04-14T15:08:01.210Z,43.60
2018-04-14T15:10:28.793Z,43.90
2018-04-14T15:12:56.405Z,44.20
2018-04-14T15:15:24.914Z,44.70
2018-04-14T15:17:52.453Z,44.70
2018-04-14T15:20:20.000Z,45.10
2018-04-14T15:22:47.964Z,46.20
2018-04-14T15:25:15.935Z,45.60
2018-04-14T15:27:43.396Z,45.60
2018-04-14T15:30:11.408Z,46.20
2018-04-14T15:32:38.937Z,46.20
2018-04-14T15:35:06.892Z,45.90
2018-04-14T15:37:34.524Z,45.90
2018-04-14T15:40:02.065Z,46.50
2018-04-14T15:42:29.587Z,46.80
2018-04-14T15:44:57.153Z,47.40
2018-04-14T15:47:24.751Z,47.50
2018-04-14T15:49:52.308Z,47.50
2018-04-14T15:52:19.887Z,47.30
2018-04-14T15:54:48.442Z,47.90
2018-04-14T15:57:16.377Z,48.40
2018-04-14T15:59:44.226Z,48.40
2018-04-14T16:02:11.781Z,48.40
2018-04-14T16:04:39.361Z,48.00
2018-04-14T16:07:10.854Z,48.20
2018-04-14T16:09:38.355Z,48.50
2018-04-14T16:12:05.906Z,48.00
2018-04-14T16:14:33.835Z,48.40
2018-04-14T16:17:01.421Z,48.40
2018-04-14T16:19:29.012Z,48.90
2018-04-14T16:21:56.964Z,49.90
2018-04-14T16:24:24.517Z,49.90
2018-04-14T16:26:52.558Z,50.00
2018-04-14T16:29:20.092Z,50.00
2018-04-14T16:31:48.073Z,50.70
2018-04-14T16:34:15.627Z,50.70
2018-04-14T16:36:43.568Z,49.90
2018-04-14T16:39:11.198Z,49.90
2018-04-14T16:41:39.368Z,50.00
2018-04-14T16:44:07.357Z,50.30
2018-04-14T16:46:35.337Z,50.30
2018-04-14T16:49:02.954Z,50.30
2018-04-14T16:51:30.945Z,50.90
2018-04-14T16:53:58.523Z,50.90
2018-04-14T16:56:26.201Z,50.90
2018-04-14T16:58:54.330Z,51.90
2018-04-14T17:01:22.424Z,51.80
2018-04-14T17:03:50.405Z,52.10
2018-04-14T17:06:17.966Z,52.10
2018-04-14T17:08:45.574Z,52.10
2018-04-14T17:11:13.246Z,52.50
2018-04-14T17:13:42.384Z,52.60
2018-04-14T17:16:11.522Z,52.50
2018-04-14T17:18:39.994Z,52.90
2018-04-14T17:21:07.612Z,53.30
2018-04-14T17:23:35.771Z,53.50
2018-04-14T17:26:03.341Z,53.60
2018-04-14T17:28:30.878Z,53.90
2018-04-14T17:30:58.427Z,54.00
2018-04-14T17:33:26.048Z,55.10
2018-04-14T17:35:53.567Z,55.10
2018-04-14T17:38:21.101Z,54.90
2018-04-14T17:40:49.093Z,56.50
2018-04-14T17:43:16.674Z,56.50
2018-04-14T17:45:44.242Z,56.70
2018-04-14T17:48:11.754Z,56.40
2018-04-14T17:50:39.729Z,56.50
2018-04-14T17:53:07.687Z,57.20
2018-04-14T17:55:35.261Z,57.20
2018-04-14T17:58:02.979Z,58.70
2018-04-14T18:00:30.489Z,57.90
2018-04-14T18:02:58.052Z,58.30
2018-04-14T18:05:25.856Z,58.20
2018-04-14T18:07:53.746Z,58.90
2018-04-14T18:10:21.412Z,58.80
2018-04-14T18:12:48.925Z,59.10
2018-04-14T18:15:16.431Z,59.20
2018-04-14T18:17:44.909Z,59.30
2018-04-14T18:20:12.512Z,59.40
2018-04-14T18:22:40.055Z,59.60
2018-04-14T18:25:07.583Z,59.90
2018-04-14T18:27:35.710Z,60.40
2018-04-14T18:30:03.284Z,60.40
2018-04-14T18:32:31.035Z,60.50
2018-04-14T18:34:59.020Z,60.40
2018-04-14T18:37:27.172Z,61.30
2018-04-14T18:39:54.961Z,61.70
2018-04-14T18:42:22.545Z,62.20
2018-04-14T18:44:50.142Z,63.10
2018-04-14T18:47:18.148Z,63.90
2018-04-14T18:49:45.706Z,63.90
2018-04-14T18:52:13.634Z,65.00
2018-04-14T18:54:41.172Z,65.00
2018-04-14T18:57:08.730Z,65.50
2018-04-14T18:59:36.909Z,65.80
2018-04-14T19:02:04.547Z,66.10
2018-04-14T19:04:32.153Z,66.50
2018-04-14T19:07:00.668Z,66.60
2018-04-14T19:09:28.479Z,67.00
2018-04-14T19:11:56.285Z,67.10
2018-04-14T19:14:23.815Z,67.60
2018-04-14T19:16:51.432Z,67.50
2018-04-14T19:19:19.034Z,67.70
2018-04-14T19:21:46.690Z,67.60
2018-04-14T19:24:14.393Z,68.10
2018-04-14T19:26:41.990Z,68.30
2018-04-14T19:29:09.839Z,68.60
2018-04-14T19:31:37.399Z,68.60
2018-04-14T19:34:04.998Z,68.90
2018-04-14T19:36:32.803Z,68.70
2018-04-14T19:39:01.954Z,69.30
2018-04-14T19:41:29.534Z,69.30
2018-04-14T19:43:57.078Z,69.30
2018-04-14T19:46:24.666Z,69.60
2018-04-14T19:48:52.278Z,69.90
2018-04-14T19:51:19.823Z,70.00
2018-04-14T19:53:47.359Z,70.10
2018-04-14T19:56:14.922Z,70.20
2018-04-14T19:58:42.532Z,70.40
2018-04-14T20:01:10.730Z,70.80
2018-04-14T20:03:38.760Z,70.80
2018-04-14T20:06:06.331Z,71.10
2018-04-14T20:08:34.355Z,71.20
2018-04-14T20:11:01.867Z,71.10
2018-04-14T20:13:29.469Z,71.00
2018-04-14T20:15:57.018Z,71.20
2018-04-14T20:18:24.964Z,71.30
2018-04-14T20:20:53.931Z,71.40
2018-04-14T20:23:21.567Z,71.40
2018-04-14T20:25:49.249Z,71.60
2018-04-14T20:28:16.841Z,71.50
2018-04-14T20:30:44.575Z,71.70
2018-04-14T20:33:12.337Z,71.50
2018-04-14T20:35:39.892Z,71.50
2018-04-14T20:38:07.512Z,71.60
2018-04-14T20:40:35.122Z,71.70
2018-04-14T20:43:02.659Z,71.60
2018-04-14T20:45:30.341Z,71.60
2018-04-14T20:47:57.899Z,71.80
2018-04-14T20:50:25.452Z,71.20
2018-04-14T20:52:53.055Z,71.10
2018-04-14T20:55:20.711Z,70.70
2018-04-14T20:57:48.239Z,70.30
2018-04-14T21:00:16.193Z,71.10
2018-04-14T21:02:44.107Z,71.10
2018-04-14T21:05:11.638Z,70.60
2018-04-14T21:07:39.606Z,70.90
2018-04-14T21:10:07.099Z,70.90
2018-04-14T21:12:34.981Z,70.80
2018-04-14T21:15:02.470Z,70.80
2018-04-14T21:17:29.999Z,71.20
2018-04-14T21:19:57.490Z,71.10
2018-04-14T21:22:24.989Z,71.30
2018-04-14T21:24:52.480Z,71.20
2018-04-14T21:27:20.450Z,71.60
2018-04-14T21:29:48.314Z,71.20
2018-04-14T21:32:16.225Z,71.20
2018-04-14T21:34:43.724Z,71.20
2018-04-14T21:37:11.238Z,71.50
2018-04-14T21:39:38.793Z,71.30
2018-04-14T21:42:06.794Z,71.50
2018-04-14T21:44:34.288Z,71.50
2018-04-14T21:47:01.910Z,71.70
2018-04-14T21:49:29.392Z,71.80
2018-04-14T21:51:56.897Z,71.70
2018-04-14T21:54:24.584Z,71.80
2018-04-14T21:56:52.482Z,71.80
2018-04-14T21:59:20.027Z,71.80
2018-04-14T22:01:47.578Z,72.20
2018-04-14T22:04:15.544Z,72.20
2018-04-14T22:06:43.036Z,72.20
2018-04-14T22:09:10.547Z,72.40
2018-04-14T22:11:38.052Z,72.50
2018-04-14T22:14:05.963Z,72.70
2018-04-14T22:16:33.522Z,72.70
2018-04-14T22:19:01.025Z,72.90
2018-04-14T22:21:28.538Z,72.70
2018-04-14T22:23:56.053Z,72.20
2018-04-14T22:26:23.565Z,73.10
2018-04-14T22:28:51.215Z,73.10
2018-04-14T22:31:18.712Z,72.70
2018-04-14T22:33:47.100Z,72.70
2018-04-14T22:36:14.617Z,72.90
2018-04-14T22:38:42.149Z,73.10
2018-04-14T22:41:09.744Z,73.10
2018-04-14T22:43:37.256Z,73.10
2018-04-14T22:46:04.864Z,73.20
2018-04-14T22:48:32.867Z,73.40
2018-04-14T22:51:00.418Z,73.40
2018-04-14T22:53:28.292Z,73.40
2018-04-14T22:55:55.921Z,73.40
2018-04-14T22:58:23.471Z,73.30
2018-04-14T23:00:50.951Z,73.40
2018-04-14T23:03:18.544Z,73.30
2018-04-14T23:05:46.055Z,73.20
2018-04-14T23:08:13.646Z,73.70
2018-04-14T23:10:41.863Z,73.80
2018-04-14T23:13:09.402Z,73.80
2018-04-14T23:15:37.363Z,74.00
2018-04-14T23:18:04.924Z,74.00
2018-04-14T23:20:32.491Z,74.00
2018-04-14T23:22:59.962Z,74.00
2018-04-14T23:25:27.857Z,74.00
2018-04-14T23:27:55.314Z,74.00
2018-04-14T23:30:22.872Z,74.10
2018-04-14T23:32:50.838Z,74.00
2018-04-14T23:35:18.739Z,74.10
2018-04-14T23:37:46.261Z,74.10
2018-04-14T23:40:14.156Z,74.10
2018-04-14T23:42:42.052Z,74.00
2018-04-14T23:45:09.584Z,74.00
2018-04-14T23:47:37.460Z,74.10
2018-04-14T23:50:04.950Z,74.10
2018-04-14T23:52:32.454Z,74.10
2018-04-14T23:54:59.950Z,74.40
2018-04-14T23:57:27.906Z,74.40
2018-04-14T23:59:55.787Z,74.30
